sensor_id;sensor_type;location;lat;lon;timestamp;pressure;altitude;pressure_sealevel;temperature;humidity
62126;BME280;48112;53.282;6.150;2023-03-26T00:00:07;100692.44;;;15.62;53.03
62126;BME280;48112;53.282;6.150;2023-03-26T00:01:13;100694.38;;;15.61;53.02
62126;BME280;48112;53.282;6.150;2023-03-26T00:02:16;100696.31;;;15.61;53.21
62126;BME280;48112;53.282;6.150;2023-03-26T00:03:18;100695.16;;;15.62;52.99
62126;BME280;48112;53.282;6.150;2023-03-26T00:04:21;100695.50;;;15.60;53.09
62126;BME280;48112;53.282;6.150;2023-03-26T00:05:25;100696.31;;;15.61;53.02
62126;BME280;48112;53.282;6.150;2023-03-26T00:06:28;100690.06;;;15.60;52.97
62126;BME280;48112;53.282;6.150;2023-03-26T00:07:30;100707.19;;;15.61;52.99
62126;BME280;48112;53.282;6.150;2023-03-26T00:08:33;100709.91;;;15.61;52.97
62126;BME280;48112;53.282;6.150;2023-03-26T00:09:36;100712.63;;;15.61;53.05
62126;BME280;48112;53.282;6.150;2023-03-26T00:10:39;100706.41;;;15.60;52.97
62126;BME280;48112;53.282;6.150;2023-03-26T00:11:41;100713.00;;;15.59;53.00
62126;BME280;48112;53.282;6.150;2023-03-26T00:12:44;100710.28;;;15.59;52.90
62126;BME280;48112;53.282;6.150;2023-03-26T00:13:47;100716.91;;;15.58;52.82
62126;BME280;48112;53.282;6.150;2023-03-26T00:14:51;100716.91;;;15.58;52.91
62126;BME280;48112;53.282;6.150;2023-03-26T00:15:53;100715.72;;;15.59;52.83
62126;BME280;48112;53.282;6.150;2023-03-26T00:16:55;100719.63;;;15.58;52.93
62126;BME280;48112;53.282;6.150;2023-03-26T00:17:57;100714.19;;;15.58;52.84
62126;BME280;48112;53.282;6.150;2023-03-26T00:19:01;100716.13;;;15.58;52.77
62126;BME280;48112;53.282;6.150;2023-03-26T00:20:03;100723.50;;;15.57;52.84
62126;BME280;48112;53.282;6.150;2023-03-26T00:21:06;100721.56;;;15.58;52.91
62126;BME280;48112;53.282;6.150;2023-03-26T00:22:08;100724.28;;;15.58;52.55
62126;BME280;48112;53.282;6.150;2023-03-26T00:23:13;100723.50;;;15.57;52.89
62126;BME280;48112;53.282;6.150;2023-03-26T00:24:15;100718.03;;;15.57;52.86
62126;BME280;48112;53.282;6.150;2023-03-26T00:25:18;100717.28;;;15.57;52.74
62126;BME280;48112;53.282;6.150;2023-03-26T00:26:21;100717.28;;;15.57;52.88
62126;BME280;48112;53.282;6.150;2023-03-26T00:27:24;100722.72;;;15.57;52.78
62126;BME280;48112;53.282;6.150;2023-03-26T00:28:28;100719.22;;;15.56;52.84
62126;BME280;48112;53.282;6.150;2023-03-26T00:29:30;100720.38;;;15.55;52.50
62126;BME280;48112;53.282;6.150;2023-03-26T00:30:34;100728.53;;;15.55;52.54
62126;BME280;48112;53.282;6.150;2023-03-26T00:31:36;100723.09;;;15.55;52.62
62126;BME280;48112;53.282;6.150;2023-03-26T00:32:40;100731.28;;;15.55;52.59
62126;BME280;48112;53.282;6.150;2023-03-26T00:33:42;100725.81;;;15.55;52.41
62126;BME280;48112;53.282;6.150;2023-03-26T00:34:44;100725.03;;;15.55;52.55
62126;BME280;48112;53.282;6.150;2023-03-26T00:35:50;100736.72;;;15.55;52.52
62126;BME280;48112;53.282;6.150;2023-03-26T00:36:53;100724.25;;;15.54;52.38
62126;BME280;48112;53.282;6.150;2023-03-26T00:37:56;100723.47;;;15.54;52.42
62126;BME280;48112;53.282;6.150;2023-03-26T00:38:58;100722.69;;;15.53;52.38
62126;BME280;48112;53.282;6.150;2023-03-26T00:40:01;100728.13;;;15.53;52.37
62126;BME280;48112;53.282;6.150;2023-03-26T00:41:06;100722.69;;;15.53;52.36
62126;BME280;48112;53.282;6.150;2023-03-26T00:42:18;100728.13;;;15.53;52.57
62126;BME280;48112;53.282;6.150;2023-03-26T00:43:20;100728.13;;;15.53;52.45
62126;BME280;48112;53.282;6.150;2023-03-26T00:44:24;100730.06;;;15.53;52.28
62126;BME280;48112;53.282;6.150;2023-03-26T00:45:26;100727.34;;;15.53;52.58
62126;BME280;48112;53.282;6.150;2023-03-26T00:46:30;100730.06;;;15.53;52.17
62126;BME280;48112;53.282;6.150;2023-03-26T00:47:32;100735.88;;;15.51;52.33
62126;BME280;48112;53.282;6.150;2023-03-26T00:48:34;100727.72;;;15.51;52.23
62126;BME280;48112;53.282;6.150;2023-03-26T00:49:45;100729.31;;;15.52;52.41
62126;BME280;48112;53.282;6.150;2023-03-26T00:50:49;100727.72;;;15.51;52.13
62126;BME280;48112;53.282;6.150;2023-03-26T00:51:51;100727.72;;;15.51;52.12
62126;BME280;48112;53.282;6.150;2023-03-26T00:52:53;100735.09;;;15.51;52.36
62126;BME280;48112;53.282;6.150;2023-03-26T00:53:56;100731.22;;;15.52;52.22
62126;BME280;48112;53.282;6.150;2023-03-26T00:54:58;100737.81;;;15.51;52.12
62126;BME280;48112;53.282;6.150;2023-03-26T00:56:00;100738.59;;;15.51;52.30
62126;BME280;48112;53.282;6.150;2023-03-26T00:57:03;100739.78;;;15.50;52.22
62126;BME280;48112;53.282;6.150;2023-03-26T00:58:07;100734.31;;;15.50;52.09
62126;BME280;48112;53.282;6.150;2023-03-26T00:59:10;100739.78;;;15.50;52.09
62126;BME280;48112;53.282;6.150;2023-03-26T01:00:13;100734.31;;;15.50;52.10
62126;BME280;48112;53.282;6.150;2023-03-26T01:01:17;100736.25;;;15.50;52.01
62126;BME280;48112;53.282;6.150;2023-03-26T01:02:22;100734.72;;;15.49;52.20
62126;BME280;48112;53.282;6.150;2023-03-26T01:03:26;100738.97;;;15.50;52.12
62126;BME280;48112;53.282;6.150;2023-03-26T01:04:31;100734.72;;;15.49;52.14
62126;BME280;48112;53.282;6.150;2023-03-26T01:05:45;100740.16;;;15.49;51.89
62126;BME280;48112;53.282;6.150;2023-03-26T01:06:49;100733.91;;;15.48;51.92
62126;BME280;48112;53.282;6.150;2023-03-26T01:07:51;100731.19;;;15.48;52.08
62126;BME280;48112;53.282;6.150;2023-03-26T01:08:54;100735.09;;;15.47;52.02
62126;BME280;48112;53.282;6.150;2023-03-26T01:10:00;100732.75;;;15.49;51.94
62126;BME280;48112;53.282;6.150;2023-03-26T01:11:04;100741.28;;;15.48;52.05
62126;BME280;48112;53.282;6.150;2023-03-26T01:12:09;100735.09;;;15.47;51.88
62126;BME280;48112;53.282;6.150;2023-03-26T01:13:12;100732.34;;;15.47;51.90
62126;BME280;48112;53.282;6.150;2023-03-26T01:14:15;100729.63;;;15.47;51.86
62126;BME280;48112;53.282;6.150;2023-03-26T01:15:18;100732.34;;;15.47;52.00
62126;BME280;48112;53.282;6.150;2023-03-26T01:16:22;100735.09;;;15.47;52.02
62126;BME280;48112;53.282;6.150;2023-03-26T01:17:27;100733.50;;;15.46;51.90
62126;BME280;48112;53.282;6.150;2023-03-26T01:18:34;100737.81;;;15.47;51.97
62126;BME280;48112;53.282;6.150;2023-03-26T01:19:44;100729.63;;;15.47;51.89
62126;BME280;48112;53.282;6.150;2023-03-26T01:20:48;100728.06;;;15.46;51.79
62126;BME280;48112;53.282;6.150;2023-03-26T01:21:51;100727.28;;;15.46;51.72
62126;BME280;48112;53.282;6.150;2023-03-26T01:22:54;100734.28;;;15.47;51.85
62126;BME280;48112;53.282;6.150;2023-03-26T01:24:01;100733.50;;;15.46;51.74
62126;BME280;48112;53.282;6.150;2023-03-26T01:25:05;100738.94;;;15.46;51.88
62126;BME280;48112;53.282;6.150;2023-03-26T01:26:09;100738.19;;;15.46;51.95
62126;BME280;48112;53.282;6.150;2023-03-26T01:27:17;100738.19;;;15.46;51.88
62126;BME280;48112;53.282;6.150;2023-03-26T01:28:24;100738.19;;;15.46;51.70
62126;BME280;48112;53.282;6.150;2023-03-26T01:29:29;100728.06;;;15.46;51.82
62126;BME280;48112;53.282;6.150;2023-03-26T01:30:33;100733.50;;;15.46;51.81
62126;BME280;48112;53.282;6.150;2023-03-26T01:31:39;100725.72;;;15.45;51.82
62126;BME280;48112;53.282;6.150;2023-03-26T01:32:47;100730.78;;;15.46;51.79
62126;BME280;48112;53.282;6.150;2023-03-26T01:33:52;100721.06;;;15.45;51.92
62126;BME280;48112;53.282;6.150;2023-03-26T01:34:59;100725.34;;;15.46;51.75
62126;BME280;48112;53.282;6.150;2023-03-26T01:36:07;100730.78;;;15.46;51.71
62126;BME280;48112;53.282;6.150;2023-03-26T01:37:12;100728.06;;;15.46;51.84
62126;BME280;48112;53.282;6.150;2023-03-26T01:38:19;100721.06;;;15.45;51.75
62126;BME280;48112;53.282;6.150;2023-03-26T01:39:26;100721.06;;;15.45;51.72
62126;BME280;48112;53.282;6.150;2023-03-26T01:40:33;100730.78;;;15.46;51.83
62126;BME280;48112;53.282;6.150;2023-03-26T01:41:43;100730.78;;;15.46;51.70
62126;BME280;48112;53.282;6.150;2023-03-26T01:42:47;100712.91;;;15.45;51.75
62126;BME280;48112;53.282;6.150;2023-03-26T01:43:53;100720.28;;;15.45;51.87
62126;BME280;48112;53.282;6.150;2023-03-26T01:45:00;100721.06;;;15.45;51.64
62126;BME280;48112;53.282;6.150;2023-03-26T01:46:04;100716.78;;;15.44;51.72
62126;BME280;48112;53.282;6.150;2023-03-26T01:47:08;100722.22;;;15.44;51.71
62126;BME280;48112;53.282;6.150;2023-03-26T01:48:10;100719.50;;;15.44;51.71
62126;BME280;48112;53.282;6.150;2023-03-26T01:49:13;100712.50;;;15.43;51.55
62126;BME280;48112;53.282;6.150;2023-03-26T01:50:15;100713.28;;;15.44;51.69
62126;BME280;48112;53.282;6.150;2023-03-26T01:51:25;100708.63;;;15.44;51.61
62126;BME280;48112;53.282;6.150;2023-03-26T01:52:27;100708.63;;;15.44;51.75
62126;BME280;48112;53.282;6.150;2023-03-26T01:53:30;100715.22;;;15.43;51.59
62126;BME280;48112;53.282;6.150;2023-03-26T01:54:35;100716.78;;;15.44;51.68
62126;BME280;48112;53.282;6.150;2023-03-26T01:55:40;100710.56;;;15.44;51.76
62126;BME280;48112;53.282;6.150;2023-03-26T01:56:52;100712.50;;;15.43;51.64
62126;BME280;48112;53.282;6.150;2023-03-26T01:58:01;100703.19;;;15.44;51.64
62126;BME280;48112;53.282;6.150;2023-03-26T01:59:13;100709.78;;;15.43;51.59
62126;BME280;48112;53.282;6.150;2023-03-26T02:00:22;100707.03;;;15.43;51.64
62126;BME280;48112;53.282;6.150;2023-03-26T02:01:26;100715.22;;;15.43;51.65
62126;BME280;48112;53.282;6.150;2023-03-26T02:02:33;100704.31;;;15.43;51.56
62126;BME280;48112;53.282;6.150;2023-03-26T02:03:40;100701.59;;;15.43;51.46
62126;BME280;48112;53.282;6.150;2023-03-26T02:04:48;100700.84;;;15.43;51.44
62126;BME280;48112;53.282;6.150;2023-03-26T02:05:54;100700.06;;;15.42;51.49
62126;BME280;48112;53.282;6.150;2023-03-26T02:06:59;100704.31;;;15.43;51.67
62126;BME280;48112;53.282;6.150;2023-03-26T02:08:07;100699.25;;;15.42;51.38
62126;BME280;48112;53.282;6.150;2023-03-26T02:09:13;100698.50;;;15.41;51.59
62126;BME280;48112;53.282;6.150;2023-03-26T02:10:19;100693.06;;;15.41;51.40
62126;BME280;48112;53.282;6.150;2023-03-26T02:11:22;100693.06;;;15.41;51.48
62126;BME280;48112;53.282;6.150;2023-03-26T02:12:33;100688.38;;;15.42;51.38
62126;BME280;48112;53.282;6.150;2023-03-26T02:13:36;100686.03;;;15.40;51.56
62126;BME280;48112;53.282;6.150;2023-03-26T02:14:38;100688.38;;;15.42;51.49
62126;BME280;48112;53.282;6.150;2023-03-26T02:15:53;100681.38;;;15.41;51.55
62126;BME280;48112;53.282;6.150;2023-03-26T02:16:55;100686.81;;;15.41;51.34
62126;BME280;48112;53.282;6.150;2023-03-26T02:17:58;100684.91;;;15.41;51.35
62126;BME280;48112;53.282;6.150;2023-03-26T02:19:03;100688.38;;;15.42;51.23
62126;BME280;48112;53.282;6.150;2023-03-26T02:20:11;100684.09;;;15.41;51.39
62126;BME280;48112;53.282;6.150;2023-03-26T02:21:15;100686.81;;;15.41;51.27
62126;BME280;48112;53.282;6.150;2023-03-26T02:22:20;100680.59;;;15.40;51.47
62126;BME280;48112;53.282;6.150;2023-03-26T02:23:22;100680.59;;;15.40;51.39
62126;BME280;48112;53.282;6.150;2023-03-26T02:24:25;100683.31;;;15.40;51.09
62126;BME280;48112;53.282;6.150;2023-03-26T02:25:31;100685.25;;;15.40;51.36
62126;BME280;48112;53.282;6.150;2023-03-26T02:26:35;100680.59;;;15.40;51.22
62126;BME280;48112;53.282;6.150;2023-03-26T02:27:42;100673.59;;;15.39;51.35
62126;BME280;48112;53.282;6.150;2023-03-26T02:28:45;100680.59;;;15.40;51.17
62126;BME280;48112;53.282;6.150;2023-03-26T02:29:48;100680.59;;;15.40;51.39
62126;BME280;48112;53.282;6.150;2023-03-26T02:30:55;100672.44;;;15.40;51.18
62126;BME280;48112;53.282;6.150;2023-03-26T02:31:58;100686.03;;;15.40;51.28
62126;BME280;48112;53.282;6.150;2023-03-26T02:33:02;100684.47;;;15.39;51.20
62126;BME280;48112;53.282;6.150;2023-03-26T02:34:12;100682.53;;;15.40;51.18
62126;BME280;48112;53.282;6.150;2023-03-26T02:35:22;100675.16;;;15.40;51.25
62126;BME280;48112;53.282;6.150;2023-03-26T02:36:29;100674.38;;;15.40;51.20
62126;BME280;48112;53.282;6.150;2023-03-26T02:37:35;100677.09;;;15.40;51.10
62126;BME280;48112;53.282;6.150;2023-03-26T02:38:49;100675.16;;;15.40;51.13
62126;BME280;48112;53.282;6.150;2023-03-26T02:39:53;100672.44;;;15.40;51.21
62126;BME280;48112;53.282;6.150;2023-03-26T02:41:03;100675.16;;;15.40;51.30
62126;BME280;48112;53.282;6.150;2023-03-26T02:42:21;100669.72;;;15.40;51.21
62126;BME280;48112;53.282;6.150;2023-03-26T02:43:24;100663.47;;;15.40;51.08
62126;BME280;48112;53.282;6.150;2023-03-26T02:44:26;100673.59;;;15.39;51.12
62126;BME280;48112;53.282;6.150;2023-03-26T02:45:31;100672.03;;;15.38;51.03
62126;BME280;48112;53.282;6.150;2023-03-26T02:46:52;100668.16;;;15.39;51.18
62126;BME280;48112;53.282;6.150;2023-03-26T02:48:15;100670.09;;;15.39;51.29
62126;BME280;48112;53.282;6.150;2023-03-26T02:49:25;100662.72;;;15.39;51.79
62126;BME280;48112;53.282;6.150;2023-03-26T02:50:29;100668.16;;;15.39;51.04
62126;BME280;48112;53.282;6.150;2023-03-26T02:51:51;100670.88;;;15.39;51.30
62126;BME280;48112;53.282;6.150;2023-03-26T02:53:00;100673.59;;;15.39;51.05
62126;BME280;48112;53.282;6.150;2023-03-26T02:54:05;100672.03;;;15.38;51.15
62126;BME280;48112;53.282;6.150;2023-03-26T02:55:11;100674.38;;;15.40;51.12
62126;BME280;48112;53.282;6.150;2023-03-26T02:56:16;100669.31;;;15.38;50.82
62126;BME280;48112;53.282;6.150;2023-03-26T02:57:32;100663.84;;;15.38;51.03
62126;BME280;48112;53.282;6.150;2023-03-26T02:58:52;100661.13;;;15.38;50.91
62126;BME280;48112;53.282;6.150;2023-03-26T02:59:54;100666.56;;;15.38;51.10
62126;BME280;48112;53.282;6.150;2023-03-26T03:01:11;100665.44;;;15.39;51.05
62126;BME280;48112;53.282;6.150;2023-03-26T03:02:25;100667.38;;;15.39;50.88
62126;BME280;48112;53.282;6.150;2023-03-26T03:03:35;100650.25;;;15.38;50.86
62126;BME280;48112;53.282;6.150;2023-03-26T03:04:38;100661.13;;;15.38;50.90
62126;BME280;48112;53.282;6.150;2023-03-26T03:05:40;100661.13;;;15.38;51.13
62126;BME280;48112;53.282;6.150;2023-03-26T03:06:46;100653.75;;;15.39;50.74
62126;BME280;48112;53.282;6.150;2023-03-26T03:07:47;100655.69;;;15.38;50.97
62126;BME280;48112;53.282;6.150;2023-03-26T03:08:50;100658.41;;;15.38;50.95
62126;BME280;48112;53.282;6.150;2023-03-26T03:10:16;100661.94;;;15.39;50.88
62126;BME280;48112;53.282;6.150;2023-03-26T03:11:40;100654.91;;;15.38;50.82
62126;BME280;48112;53.282;6.150;2023-03-26T03:12:43;100655.69;;;15.38;50.91
62126;BME280;48112;53.282;6.150;2023-03-26T03:13:45;100650.25;;;15.38;50.92
62126;BME280;48112;53.282;6.150;2023-03-26T03:14:56;100658.41;;;15.38;50.75
62126;BME280;48112;53.282;6.150;2023-03-26T03:15:58;100652.97;;;15.38;50.80
62126;BME280;48112;53.282;6.150;2023-03-26T03:17:01;100651.41;;;15.37;50.86
62126;BME280;48112;53.282;6.150;2023-03-26T03:18:02;100661.13;;;15.38;50.87
62126;BME280;48112;53.282;6.150;2023-03-26T03:19:06;100658.41;;;15.38;50.78
62126;BME280;48112;53.282;6.150;2023-03-26T03:20:12;100655.69;;;15.38;50.69
62126;BME280;48112;53.282;6.150;2023-03-26T03:21:15;100650.25;;;15.38;50.83
62126;BME280;48112;53.282;6.150;2023-03-26T03:22:17;100656.84;;;15.37;50.81
62126;BME280;48112;53.282;6.150;2023-03-26T03:23:23;100659.56;;;15.37;50.86
62126;BME280;48112;53.282;6.150;2023-03-26T03:24:30;100654.91;;;15.38;50.78
62126;BME280;48112;53.282;6.150;2023-03-26T03:25:34;100656.84;;;15.37;50.76
62126;BME280;48112;53.282;6.150;2023-03-26T03:26:36;100645.94;;;15.37;50.73
62126;BME280;48112;53.282;6.150;2023-03-26T03:27:54;100661.50;;;15.37;50.50
62126;BME280;48112;53.282;6.150;2023-03-26T03:28:56;100652.19;;;15.38;50.77
62126;BME280;48112;53.282;6.150;2023-03-26T03:29:59;100654.13;;;15.37;50.77
62126;BME280;48112;53.282;6.150;2023-03-26T03:31:21;100647.88;;;15.37;50.70
62126;BME280;48112;53.282;6.150;2023-03-26T03:32:25;100659.56;;;15.37;50.67
62126;BME280;48112;53.282;6.150;2023-03-26T03:33:32;100650.59;;;15.37;50.64
62126;BME280;48112;53.282;6.150;2023-03-26T03:34:35;100652.56;;;15.36;50.73
62126;BME280;48112;53.282;6.150;2023-03-26T03:35:39;100647.88;;;15.37;50.94
62126;BME280;48112;53.282;6.150;2023-03-26T03:36:43;100654.13;;;15.37;50.61
62126;BME280;48112;53.282;6.150;2023-03-26T03:38:01;100649.84;;;15.36;50.86
62126;BME280;48112;53.282;6.150;2023-03-26T03:39:10;100642.44;;;15.37;50.67
62126;BME280;48112;53.282;6.150;2023-03-26T03:40:13;100637.00;;;15.37;50.67
62126;BME280;48112;53.282;6.150;2023-03-26T03:41:16;100645.16;;;15.37;50.57
62126;BME280;48112;53.282;6.150;2023-03-26T03:42:20;100642.44;;;15.37;50.75
62126;BME280;48112;53.282;6.150;2023-03-26T03:43:25;100647.88;;;15.37;50.64
62126;BME280;48112;53.282;6.150;2023-03-26T03:44:37;100642.44;;;15.37;50.64
62126;BME280;48112;53.282;6.150;2023-03-26T03:45:47;100641.69;;;15.36;50.58
62126;BME280;48112;53.282;6.150;2023-03-26T03:47:02;100647.13;;;15.36;50.74
62126;BME280;48112;53.282;6.150;2023-03-26T03:48:04;100641.69;;;15.36;50.89
62126;BME280;48112;53.282;6.150;2023-03-26T03:49:13;100636.25;;;15.36;50.68
62126;BME280;48112;53.282;6.150;2023-03-26T03:50:15;100647.88;;;15.37;50.75
62126;BME280;48112;53.282;6.150;2023-03-26T03:51:40;100643.22;;;15.37;50.50
62126;BME280;48112;53.282;6.150;2023-03-26T03:52:51;100652.56;;;15.36;50.57
62126;BME280;48112;53.282;6.150;2023-03-26T03:53:54;100651.78;;;15.36;50.60
62126;BME280;48112;53.282;6.150;2023-03-26T03:55:25;100649.84;;;15.36;50.61
62126;BME280;48112;53.282;6.150;2023-03-26T03:56:30;100658.00;;;15.36;50.71
62126;BME280;48112;53.282;6.150;2023-03-26T03:58:00;100652.56;;;15.36;50.66
62126;BME280;48112;53.282;6.150;2023-03-26T03:59:05;100649.06;;;15.36;50.65
62126;BME280;48112;53.282;6.150;2023-03-26T04:00:10;100653.69;;;15.35;50.61
62126;BME280;48112;53.282;6.150;2023-03-26T04:01:24;100649.06;;;15.36;50.60
62126;BME280;48112;53.282;6.150;2023-03-26T04:02:34;100650.97;;;15.35;50.63
62126;BME280;48112;53.282;6.150;2023-03-26T04:03:39;100653.69;;;15.35;50.56
62126;BME280;48112;53.282;6.150;2023-03-26T04:04:45;100650.97;;;15.35;50.65
62126;BME280;48112;53.282;6.150;2023-03-26T04:05:53;100652.56;;;15.36;50.53
62126;BME280;48112;53.282;6.150;2023-03-26T04:06:58;100644.41;;;15.36;50.51
62126;BME280;48112;53.282;6.150;2023-03-26T04:08:09;100650.97;;;15.35;50.70
62126;BME280;48112;53.282;6.150;2023-03-26T04:09:18;100656.41;;;15.35;50.45
62126;BME280;48112;53.282;6.150;2023-03-26T04:10:22;100653.69;;;15.35;50.59
62126;BME280;48112;53.282;6.150;2023-03-26T04:11:42;100656.41;;;15.35;50.52
62126;BME280;48112;53.282;6.150;2023-03-26T04:13:06;100655.66;;;15.35;50.45
62126;BME280;48112;53.282;6.150;2023-03-26T04:14:33;100650.97;;;15.35;50.59
62126;BME280;48112;53.282;6.150;2023-03-26T04:15:48;100654.88;;;15.34;50.64
62126;BME280;48112;53.282;6.150;2023-03-26T04:16:49;100654.88;;;15.34;50.50
62126;BME280;48112;53.282;6.150;2023-03-26T04:17:52;100654.09;;;15.34;50.41
62126;BME280;48112;53.282;6.150;2023-03-26T04:18:54;100659.53;;;15.34;50.41
62126;BME280;48112;53.282;6.150;2023-03-26T04:19:58;100655.66;;;15.35;50.41
62126;BME280;48112;53.282;6.150;2023-03-26T04:21:11;100652.16;;;15.34;50.48
62126;BME280;48112;53.282;6.150;2023-03-26T04:22:17;100656.03;;;15.33;50.47
62126;BME280;48112;53.282;6.150;2023-03-26T04:23:40;100657.59;;;15.34;50.46
62126;BME280;48112;53.282;6.150;2023-03-26T04:24:54;100656.81;;;15.34;50.44
62126;BME280;48112;53.282;6.150;2023-03-26T04:26:25;100647.88;;;15.33;50.11
62126;BME280;48112;53.282;6.150;2023-03-26T04:27:42;100641.66;;;15.33;50.22
62126;BME280;48112;53.282;6.150;2023-03-26T04:28:50;100650.19;;;15.31;50.18
62126;BME280;48112;53.282;6.150;2023-03-26T04:30:00;100651.75;;;15.32;50.29
62126;BME280;48112;53.282;6.150;2023-03-26T04:31:03;100649.81;;;15.33;50.40
62126;BME280;48112;53.282;6.150;2023-03-26T04:32:11;100648.25;;;15.32;50.08
62126;BME280;48112;53.282;6.150;2023-03-26T04:33:19;100650.97;;;15.32;50.13
62126;BME280;48112;53.282;6.150;2023-03-26T04:34:22;100649.00;;;15.32;50.25
62126;BME280;48112;53.282;6.150;2023-03-26T04:35:37;100649.00;;;15.32;50.11
62126;BME280;48112;53.282;6.150;2023-03-26T04:36:42;100650.19;;;15.31;50.18
62126;BME280;48112;53.282;6.150;2023-03-26T04:37:47;100647.47;;;15.31;50.00
62126;BME280;48112;53.282;6.150;2023-03-26T04:38:56;100645.88;;;15.30;50.01
62126;BME280;48112;53.282;6.150;2023-03-26T04:40:22;100647.84;;;15.30;49.90
62126;BME280;48112;53.282;6.150;2023-03-26T04:41:31;100643.53;;;15.29;50.06
62126;BME280;48112;53.282;6.150;2023-03-26T04:42:38;100644.34;;;15.29;49.86
62126;BME280;48112;53.282;6.150;2023-03-26T04:43:49;100650.94;;;15.28;49.95
62126;BME280;48112;53.282;6.150;2023-03-26T04:45:06;100647.06;;;15.29;49.79
62126;BME280;48112;53.282;6.150;2023-03-26T04:46:09;100648.22;;;15.28;49.98
62126;BME280;48112;53.282;6.150;2023-03-26T04:47:22;100645.50;;;15.28;49.66
62126;BME280;48112;53.282;6.150;2023-03-26T04:48:25;100646.63;;;15.27;49.84
62126;BME280;48112;53.282;6.150;2023-03-26T04:49:26;100649.34;;;15.27;49.83
62126;BME280;48112;53.282;6.150;2023-03-26T04:50:29;100650.16;;;15.28;49.64
62126;BME280;48112;53.282;6.150;2023-03-26T04:51:32;100650.16;;;15.28;49.84
62126;BME280;48112;53.282;6.150;2023-03-26T04:52:44;100649.34;;;15.27;49.86
62126;BME280;48112;53.282;6.150;2023-03-26T04:54:15;100653.25;;;15.26;49.68
62126;BME280;48112;53.282;6.150;2023-03-26T04:55:28;100644.28;;;15.26;49.76
62126;BME280;48112;53.282;6.150;2023-03-26T04:56:41;100647.81;;;15.26;49.71
62126;BME280;48112;53.282;6.150;2023-03-26T04:58:00;100644.28;;;15.26;49.69
62126;BME280;48112;53.282;6.150;2023-03-26T04:59:24;100648.97;;;15.25;50.02
62126;BME280;48112;53.282;6.150;2023-03-26T05:00:32;100651.69;;;15.25;49.54
62126;BME280;48112;53.282;6.150;2023-03-26T05:01:34;100650.91;;;15.25;49.78
62126;BME280;48112;53.282;6.150;2023-03-26T05:02:38;100653.63;;;15.25;49.59
62126;BME280;48112;53.282;6.150;2023-03-26T05:03:42;100652.84;;;15.24;49.75
62126;BME280;48112;53.282;6.150;2023-03-26T05:04:47;100654.78;;;15.24;49.50
62126;BME280;48112;53.282;6.150;2023-03-26T05:05:51;100653.63;;;15.25;49.54
62126;BME280;48112;53.282;6.150;2023-03-26T05:06:53;100655.56;;;15.24;49.53
62126;BME280;48112;53.282;6.150;2023-03-26T05:08:06;100650.13;;;15.24;49.57
62126;BME280;48112;53.282;6.150;2023-03-26T05:09:09;100654.78;;;15.24;49.61
62126;BME280;48112;53.282;6.150;2023-03-26T05:10:35;100648.56;;;15.23;49.52
62126;BME280;48112;53.282;6.150;2023-03-26T05:11:43;100659.44;;;15.23;49.02
62126;BME280;48112;53.282;6.150;2023-03-26T05:12:45;100648.56;;;15.23;49.42
62126;BME280;48112;53.282;6.150;2023-03-26T05:13:55;100648.56;;;15.23;49.27
62126;BME280;48112;53.282;6.150;2023-03-26T05:14:57;100652.44;;;15.22;49.51
62126;BME280;48112;53.282;6.150;2023-03-26T05:16:21;100652.44;;;15.22;49.27
62126;BME280;48112;53.282;6.150;2023-03-26T05:17:29;100648.94;;;15.22;49.29
62126;BME280;48112;53.282;6.150;2023-03-26T05:18:35;100653.22;;;15.23;49.20
62126;BME280;48112;53.282;6.150;2023-03-26T05:19:38;100652.44;;;15.22;49.37
62126;BME280;48112;53.282;6.150;2023-03-26T05:20:41;100648.94;;;15.22;49.23
62126;BME280;48112;53.282;6.150;2023-03-26T05:21:45;100649.31;;;15.20;49.35
62126;BME280;48112;53.282;6.150;2023-03-26T05:22:47;100650.88;;;15.21;49.28
62126;BME280;48112;53.282;6.150;2023-03-26T05:23:56;100646.59;;;15.20;49.29
62126;BME280;48112;53.282;6.150;2023-03-26T05:24:58;100652.03;;;15.20;48.93
62126;BME280;48112;53.282;6.150;2023-03-26T05:26:04;100652.44;;;15.22;49.10
62126;BME280;48112;53.282;6.150;2023-03-26T05:27:11;100646.59;;;15.20;48.88
62126;BME280;48112;53.282;6.150;2023-03-26T05:28:14;100642.28;;;15.19;49.00
62126;BME280;48112;53.282;6.150;2023-03-26T05:29:26;100647.72;;;15.19;49.20
62126;BME280;48112;53.282;6.150;2023-03-26T05:30:29;100646.97;;;15.19;49.09
62126;BME280;48112;53.282;6.150;2023-03-26T05:31:35;100642.28;;;15.19;48.94
62126;BME280;48112;53.282;6.150;2023-03-26T05:32:38;100646.19;;;15.18;48.96
62126;BME280;48112;53.282;6.150;2023-03-26T05:33:40;100646.97;;;15.19;48.87
62126;BME280;48112;53.282;6.150;2023-03-26T05:34:45;100640.75;;;15.18;49.06
62126;BME280;48112;53.282;6.150;2023-03-26T05:35:47;100648.91;;;15.18;49.15
62126;BME280;48112;53.282;6.150;2023-03-26T05:37:02;100643.47;;;15.18;49.01
62126;BME280;48112;53.282;6.150;2023-03-26T05:38:24;100646.19;;;15.18;48.94
62126;BME280;48112;53.282;6.150;2023-03-26T05:39:29;100646.19;;;15.18;48.96
62126;BME280;48112;53.282;6.150;2023-03-26T05:41:01;100644.63;;;15.17;49.11
62126;BME280;48112;53.282;6.150;2023-03-26T05:42:04;100644.63;;;15.17;48.81
62126;BME280;48112;53.282;6.150;2023-03-26T05:43:23;100647.34;;;15.17;48.67
62126;BME280;48112;53.282;6.150;2023-03-26T05:44:37;100650.06;;;15.17;48.91
62126;BME280;48112;53.282;6.150;2023-03-26T05:45:48;100650.06;;;15.17;48.92
62126;BME280;48112;53.282;6.150;2023-03-26T05:47:04;100648.50;;;15.16;48.80
62126;BME280;48112;53.282;6.150;2023-03-26T05:48:07;100646.94;;;15.15;48.96
62126;BME280;48112;53.282;6.150;2023-03-26T05:49:09;100649.28;;;15.17;48.53
62126;BME280;48112;53.282;6.150;2023-03-26T05:50:12;100648.50;;;15.16;48.98